CheckWX is a tool to help pilots better visualize weather data.  It is not intended as a substitute for an official pre-flight weather briefing.

05:05:22 UTC

KTRM METAR
Jacqueline Cochran Regional Airport
Palm Springs, California, USA
Current

1 hour ago

KTRM 270352Z AUTO 30006KT 10SM CLR 32/08 A2970 RMK AO2 SLP059 T03170078
Observed
May-27 @ 03:52 UTC
Wind
  • 300° at 6 KTS
Visibility
Flight Rules
VFR
Cloud Levels
  • Clear skies
Temperature
32°C / 90°F
Dewpoint
C / 46°F
Humidity
22%
Altimeter
29.7" Hg
Pressure
1005.72 hPa
Previous

2 hours ago

KTRM 270252Z AUTO 11005KT 10SM CLR 33/07 A2967 RMK AO2 SLP049 T03330067 55001
Observed
May-27 @ 02:52 UTC
Wind
  • 110° at 5 KTS
Visibility
Flight Rules
VFR
Cloud Levels
  • Clear skies
Temperature
33°C / 91°F
Dewpoint
C / 45°F
Humidity
20%
Altimeter
29.67" Hg
Pressure
1004.72 hPa
Previous

3 hours ago

KTRM 270152Z AUTO 12006KT 10SM CLR 38/07 A2966 RMK AO2 SLP045 T03830072
Observed
May-27 @ 01:52 UTC
Wind
  • 120° at 6 KTS
Visibility
Flight Rules
VFR
Cloud Levels
  • Clear skies
Temperature
38°C / 100°F
Dewpoint
C / 45°F
Humidity
15%
Altimeter
29.66" Hg
Pressure
1004.42 hPa